Terminal Aerodrome Forecast
Issued by NWS Louisville, KY

Home | Current Version | Previous Version | Text Only | Print | Product List | Glossary On
Versions: 1 2 3 4 5 6 7 8 9 10 11 12 13 14 15 16 17 18
000
FTUS43 KLMK 230500
TAFLEX
TAF
KLEX 230520Z 2306/2406 VRB03KT P6SM SCT050
     FM231200 25007KT P6SM SCT050
     FM231800 27007KT P6SM VCTS SCT040CB
     FM232200 33007KT P6SM VCTS BKN040CB
     FM240200 01006KT P6SM BKN045=

USA.gov is the U.S. government's official web portal to all federal, state and local government web resources and services.